Weather at Adolfo Suárez Madrid–Barajas Airport

Public forecast

Using degrees Celsius for public forecast. Weather courtesy of forecast.io.

Current aviation weather report (METAR) for Adolfo Suárez Madrid–Barajas Airport

Retrieved 2022/05/19 08:00 UTC (22 minutes ago):

LEMD 190800Z 35004KT 290V030 CAVOK 22/11 Q1021 NOSIG

Aviation forecast (TAF) for Adolfo Suárez Madrid–Barajas Airport

Retrieved 2022/05/19 06:28 UTC (2 hours ago):

TAF LEMD 190500Z 1906/2012 VRB05KT CAVOK TX36/1915Z TN13/2006Z BECMG 1910/1912 15010KT TEMPO 1916/1924 15015G30KT